• Join FlightAware (Why Join?)
  • Login
  • US Flag 
06:11PM EDT


 

Airport Tracker/Info


-or-


 

Live Flight TrackerFlight Track Log ✈ SWA2702 ✈ 18-Apr-2013 ✈ KSNA - KSFO

Flight Track Log - Related Links

Times and Time Zones

All times are in EDT time to prevent confusion due to time zone crossing. See the SWA2702 flight status page for this flight to view local times or setup timezone preferences in your user account.

Time Position Orientation Groundspeed Altitude Reporting Facility
EDT Latitude Longitude Course Direction KTS MPH feet Rate Location/Type
11:11AM 33.7333 -117.8333 231° Southwest 204 235 3,900  Level Southern California TRACON
11:13AM 33.6181 -117.7942 164° South 280 322 10,200 2,820 Climbing Los Angeles Center
11:14AM 33.5525 -117.8231 200° South 301 346 12,500 1,380 Climbing Los Angeles Center
11:15AM 33.4514 -117.8911 209° Southwest 347 399 13,100 480 Climbing Los Angeles Center
11:16AM 33.4340 -118.0491 231° Southwest  Level FlightAware Approximate
11:16AM 33.3767 -117.9692 221° Southwest 354 407 13,600  Level Los Angeles Center
11:17AM 33.2942 -118.0517 220° Southwest 370 426 16,600 3,120 Climbing Los Angeles Center
11:18AM 33.2692 -118.1878 258° West 381 438 20,100 2,940 Climbing Los Angeles Center
11:19AM 33.3372 -118.2786 312° West 362 417 22,800 2,280 Climbing Los Angeles Center
11:20AM 33.3942 -118.3519 313° West 365 420 24,800 2,220 Climbing Los Angeles Center
11:21AM 33.4842 -118.4661 313° West 380 437 27,400 2,100 Climbing Los Angeles Center
11:22AM 33.5628 -118.5644 314° West 397 457 29,200 1,980 Climbing Los Angeles Center
11:23AM 33.6425 -118.6647 314° West 409 471 31,500 2,100 Climbing Los Angeles Center
11:24AM 33.7197 -118.7619 314° West 401 461 33,600 2,040 Climbing Los Angeles Center
11:25AM 33.8106 -118.8758 314° West 393 452 35,800 1,740 Climbing Los Angeles Center
11:26AM 33.8842 -118.9714 313° West 389 448 37,300 1,020 Climbing Los Angeles Center
11:27AM 33.9600 -119.0664 314° West 392 451 38,000 300 Climbing Los Angeles Center
11:29AM 34.0364 -119.1633 314° West 398 458 38,000  Level Los Angeles Center
11:30AM 34.1117 -119.2606 313° West 397 457 38,000  Level Los Angeles Center
11:31AM 34.1861 -119.3564 313° West 392 451 38,000  Level Los Angeles Center
11:32AM 34.2600 -119.4511 313° West 389 448 38,000  Level Los Angeles Center
11:33AM 34.3494 -119.5664 313° West 391 450 38,000  Level Los Angeles Center
11:34AM 34.4214 -119.6611 313° West 384 442 38,000  Level Los Angeles Center
11:35AM 34.4944 -119.7553 313° West 384 442 38,000  Level Los Angeles Center
11:36AM 34.5742 -119.8439 318° Northwest 387 445 38,000  Level Los Angeles Center
11:37AM 34.6578 -119.9347 318° Northwest 385 443 38,000  Level Los Angeles Center
11:38AM 34.7217 -120.0044 318° Northwest 387 445 38,000  Level Los Angeles Center
11:39AM 34.8294 -120.1206 319° Northwest 386 444 38,000  Level Los Angeles Center
11:40AM 34.9097 -120.2086 318° Northwest 390 449 38,000  Level Los Angeles Center
11:41AM 34.9892 -120.2967 318° Northwest 391 450 38,000  Level Los Angeles Center
11:42AM 35.0694 -120.3844 318° Northwest 391 450 38,000  Level Los Angeles Center
11:43AM 35.1650 -120.4908 318° Northwest 391 450 38,000  Level Los Angeles Center
11:44AM 35.2611 -120.5992 317° Northwest 394 453 38,000  Level Los Angeles Center
11:45AM 35.3444 -120.6869 319° Northwest 398 458 38,000  Level Los Angeles Center
11:46AM 35.4344 -120.7669 324° Northwest 401 461 38,000  Level Los Angeles Center
11:47AM 35.5206 -120.8433 324° Northwest 398 458 38,000  Level Oakland Center
11:48AM 35.6289 -120.9411 324° Northwest 400 460 38,000  Level Oakland Center
11:49AM 35.7175 -121.0225 323° Northwest 397 457 38,000 -240 Level Oakland Center
11:50AM 35.8072 -121.1036 324° Northwest 397 457 37,600 -720 Descending Oakland Center
11:51AM 35.8950 -121.1831 324° Northwest 391 450 36,600 -1,020 Descending Oakland Center
11:52AM 35.9811 -121.2586 325° Northwest 380 437 35,600 -1,320 Descending Oakland Center
11:53AM 36.0683 -121.3414 323° Northwest 391 450 34,000 -1,860 Descending Oakland Center
11:54AM 36.1536 -121.4161 325° Northwest 377 434 31,900 -1,980 Descending Oakland Center
11:55AM 36.2331 -121.4919 322° Northwest 362 417 30,000 -1,860 Descending Oakland Center
11:57AM 36.3106 -121.5614 324° Northwest 343 395 28,100 -1,860 Descending Oakland Center
11:58AM 36.3839 -121.6317 322° Northwest 333 383 26,300 -1,920 Descending Oakland Center
11:59AM 36.4706 -121.7097 324° Northwest 320 368 24,200 -1,860 Descending Oakland Center
12:00PM 36.5383 -121.7761 322° Northwest 312 359 22,500 -1,740 Descending Oakland Center
12:00PM 36.5833 -121.8167 324° Northwest 310 357 21,500 -1,620 Descending Northern Cal TRACON
12:01PM 36.6500 -121.8667 329° Northwest 306 352 20,100 -1,680 Descending Northern Cal TRACON
12:02PM 36.7167 -121.9333 321° Northwest 301 346 18,400 -1,800 Descending Northern Cal TRACON
12:03PM 36.7833 -121.9667 338° Northwest 308 354 16,500 -1,740 Descending Northern Cal TRACON
12:04PM 36.8500 -122.0000 338° Northwest 294 338 15,200 -1,500 Descending Northern Cal TRACON
12:05PM 36.9114 -122.0081 354° North 289 333 14,100 -1,560 Descending Oakland Center
12:06PM 36.9875 -122.0267 349° North 281 323 12,500 -1,560 Descending Oakland Center
12:07PM 37.0631 -122.0467 348° North 278 320 11,000 -1,260 Descending Oakland Center
12:08PM 37.1347 -122.0658 348° North 265 305 10,000 -1,140 Descending Oakland Center
12:09PM 37.1869 -122.1144 323° Northwest 247 284 8,700 -1,320 Descending Oakland Center
12:10PM 37.2342 -122.1792 313° West 251 289 7,400 -1,020 Descending Oakland Center
12:11PM 37.2956 -122.1867 354° North 228 262 6,700 -840 Descending Oakland Center
12:12PM 37.3633 -122.1794 North 203 234 5,800 -1,020 Descending Oakland Center
12:13PM 37.4156 -122.1725 North 191 220 4,700 -900 Descending Oakland Center
12:14PM 37.4664 -122.1747 358° North 186 214 4,000 -840 Descending Oakland Center
12:15PM 37.5089 -122.1531 22° Northeast 178 205 3,100 -780 Descending Oakland Center
12:16PM 37.5414 -122.1964 313° West 172 198 2,500 -600 Descending Oakland Center
12:17PM 37.5633 -122.2458 299° West 166 191 1,900 -720 Descending Oakland Center
12:18PM 37.5850 -122.2981 298° West 166 191 1,100 -840 Descending Oakland Center
12:19PM 37.6025 -122.3411 297° West 155 178 300 -540 Descending Oakland Center
12:20PM 37.6189 -122.3836 296° West 152 175 100 -240 Descending Oakland Center
12:22PM 37.6167 -122.3667 322° Northwest  Level FlightAware Approximate